createdAt,value
2019-05-11T00:02:22.483Z,11.36
2019-05-11T00:04:52.810Z,11.40
2019-05-11T00:07:24.220Z,11.43
2019-05-11T00:09:57.961Z,11.32
2019-05-11T00:12:26.541Z,11.30
2019-05-11T00:14:56.886Z,11.36
2019-05-11T00:17:27.251Z,11.30
2019-05-11T00:19:57.819Z,11.33
2019-05-11T00:22:28.674Z,11.27
2019-05-11T00:24:59.764Z,11.34
2019-05-11T00:27:30.092Z,11.30
2019-05-11T00:30:00.437Z,11.42
2019-05-11T00:32:30.728Z,11.33
2019-05-11T00:35:02.984Z,11.29
2019-05-11T00:37:35.515Z,11.27
2019-05-11T00:40:14.435Z,11.36
2019-05-11T00:42:40.861Z,11.25
2019-05-11T00:45:12.733Z,11.22
2019-05-11T00:47:43.022Z,11.23
2019-05-11T00:50:14.386Z,11.12
2019-05-11T00:52:45.174Z,11.04
2019-05-11T00:55:16.931Z,11.05
2019-05-11T00:57:48.732Z,11.00
2019-05-11T01:00:19.522Z,11.11
2019-05-11T01:02:49.881Z,11.09
2019-05-11T01:05:20.813Z,10.98
2019-05-11T01:07:53.213Z,11.09
2019-05-11T01:10:40.051Z,11.03
2019-05-11T01:12:56.881Z,11.03
2019-05-11T01:15:27.508Z,10.97
2019-05-11T01:17:58.689Z,10.95
2019-05-11T01:20:28.997Z,11.07
2019-05-11T01:22:59.798Z,10.97
2019-05-11T01:25:31.153Z,10.85
2019-05-11T01:28:02.388Z,10.80
2019-05-11T01:30:32.704Z,10.78
2019-05-11T01:33:03.749Z,10.84
2019-05-11T01:35:34.074Z,10.81
2019-05-11T01:38:05.472Z,10.83
2019-05-11T01:40:36.155Z,10.73
2019-05-11T01:43:06.787Z,10.72
2019-05-11T01:45:37.220Z,10.73
2019-05-11T01:48:08.097Z,10.93
2019-05-11T01:50:38.974Z,10.75
2019-05-11T01:53:10.739Z,10.70
2019-05-11T01:55:42.333Z,10.68
2019-05-11T01:58:13.595Z,10.69
2019-05-11T02:00:44.161Z,10.66
2019-05-11T02:03:15.255Z,10.61
2019-05-11T02:05:45.975Z,10.64
2019-05-11T02:08:17.223Z,10.54
2019-05-11T02:10:47.533Z,10.50
2019-05-11T02:13:17.969Z,10.40
2019-05-11T02:15:48.520Z,10.32
2019-05-11T02:18:19.297Z,10.29
2019-05-11T02:20:49.545Z,10.30
2019-05-11T02:23:21.011Z,10.30
2019-05-11T02:25:51.310Z,10.32
2019-05-11T02:28:21.717Z,10.33
2019-05-11T02:30:52.818Z,10.36
2019-05-11T02:33:23.213Z,10.36
2019-05-11T02:35:54.572Z,10.38
2019-05-11T02:38:25.681Z,10.39
2019-05-11T02:40:55.997Z,10.45
2019-05-11T02:43:26.446Z,10.42
2019-05-11T02:45:56.792Z,10.40
2019-05-11T02:48:27.768Z,10.47
2019-05-11T02:51:00.291Z,10.48
2019-05-11T02:53:33.709Z,10.43
2019-05-11T02:56:04.562Z,10.41
2019-05-11T02:58:35.099Z,10.42
2019-05-11T03:01:05.915Z,10.45
2019-05-11T03:03:36.229Z,10.57
2019-05-11T03:06:06.626Z,10.50
2019-05-11T03:08:38.497Z,10.49
2019-05-11T03:11:11.129Z,10.48
2019-05-11T03:13:42.000Z,10.49
2019-05-11T03:16:12.730Z,10.46
2019-05-11T03:18:43.664Z,10.42
2019-05-11T03:21:14.407Z,10.38
2019-05-11T03:23:46.148Z,10.39
2019-05-11T03:26:16.646Z,10.40
2019-05-11T03:28:47.319Z,10.35
2019-05-11T03:31:19.684Z,10.35
2019-05-11T03:33:50.929Z,10.35
2019-05-11T03:36:21.247Z,10.33
2019-05-11T03:38:51.937Z,10.33
2019-05-11T03:41:22.204Z,10.33
2019-05-11T03:43:52.961Z,10.30
2019-05-11T03:46:23.429Z,10.29
2019-05-11T03:48:54.600Z,10.32
2019-05-11T03:51:25.407Z,10.29
2019-05-11T03:53:57.122Z,10.28
2019-05-11T03:56:27.492Z,10.28
2019-05-11T03:58:57.773Z,10.28
2019-05-11T04:01:29.197Z,10.30
2019-05-11T04:03:59.499Z,10.31
2019-05-11T04:06:29.767Z,10.34
2019-05-11T04:09:01.898Z,10.35
2019-05-11T04:11:33.647Z,10.43
2019-05-11T04:14:04.438Z,10.38
2019-05-11T04:16:34.752Z,10.33
2019-05-11T04:19:06.155Z,10.35
2019-05-11T04:21:36.580Z,10.33
2019-05-11T04:24:09.083Z,10.41
2019-05-11T04:26:39.418Z,10.45
2019-05-11T04:29:09.911Z,10.39
2019-05-11T04:31:40.169Z,10.39
2019-05-11T04:34:10.539Z,10.40
2019-05-11T04:36:41.099Z,10.33
2019-05-11T04:39:11.398Z,10.31
2019-05-11T04:41:41.748Z,10.29
2019-05-11T04:44:12.111Z,10.29
2019-05-11T04:46:43.713Z,10.28
2019-05-11T04:49:15.249Z,10.30
2019-05-11T04:51:46.798Z,10.25
2019-05-11T04:54:17.809Z,10.27
2019-05-11T04:56:48.676Z,10.12
2019-05-11T04:59:20.410Z,10.08
2019-05-11T05:01:51.672Z,10.02
2019-05-11T05:04:22.320Z,10.05
2019-05-11T05:06:59.955Z,10.03
2019-05-11T05:09:25.660Z,9.96
2019-05-11T05:11:56.856Z,10.05
2019-05-11T05:14:27.204Z,10.06
2019-05-11T05:16:58.426Z,10.26
2019-05-11T05:19:29.626Z,10.20
2019-05-11T05:22:00.864Z,10.30
2019-05-11T05:24:32.167Z,10.35
2019-05-11T05:27:02.503Z,10.30
2019-05-11T05:29:34.807Z,10.20
2019-05-11T05:32:05.132Z,10.14
2019-05-11T05:34:36.721Z,10.16
2019-05-11T05:37:06.965Z,10.02
2019-05-11T05:39:42.082Z,10.31
2019-05-11T05:42:12.325Z,10.15
2019-05-11T05:44:42.721Z,9.99
2019-05-11T05:47:14.373Z,9.96
2019-05-11T05:49:44.701Z,10.01
2019-05-11T05:52:16.172Z,10.06
2019-05-11T05:54:47.404Z,10.29
2019-05-11T05:57:17.718Z,10.49
2019-05-11T05:59:48.022Z,10.83
2019-05-11T06:02:18.666Z,10.89
2019-05-11T06:04:50.318Z,11.22
2019-05-11T06:07:22.287Z,12.94
2019-05-11T06:09:53.537Z,14.98
2019-05-11T06:12:24.778Z,16.70
2019-05-11T06:14:55.198Z,17.01
2019-05-11T06:17:26.138Z,17.55
2019-05-11T06:20:03.714Z,18.30
2019-05-11T06:22:34.573Z,18.53
2019-05-11T06:25:07.624Z,19.33
2019-05-11T06:27:39.709Z,20.18
2019-05-11T06:30:10.725Z,20.87
2019-05-11T06:32:41.898Z,20.93
2019-05-11T06:35:14.461Z,20.84
2019-05-11T06:37:45.121Z,20.70
2019-05-11T06:40:16.825Z,21.10
2019-05-11T06:42:47.693Z,21.91
2019-05-11T06:45:18.490Z,22.26
2019-05-11T06:47:49.128Z,22.85
2019-05-11T06:50:19.861Z,23.17
2019-05-11T06:52:51.129Z,23.79
2019-05-11T06:55:22.291Z,24.17
2019-05-11T06:57:53.288Z,24.52
2019-05-11T07:00:23.602Z,24.62
2019-05-11T07:02:53.983Z,24.30
2019-05-11T07:05:24.704Z,24.32
2019-05-11T07:07:57.439Z,23.37
2019-05-11T07:10:27.894Z,22.09
2019-05-11T07:12:58.733Z,21.78
2019-05-11T07:15:29.256Z,21.71
2019-05-11T07:18:00.258Z,22.31
2019-05-11T07:20:30.900Z,23.22
2019-05-11T07:23:01.319Z,24.07
2019-05-11T07:25:36.798Z,23.97
2019-05-11T07:28:07.108Z,23.91
2019-05-11T07:30:39.094Z,24.14
2019-05-11T07:33:09.339Z,23.83
2019-05-11T07:35:39.729Z,23.15
2019-05-11T07:38:10.358Z,21.87
2019-05-11T07:40:41.493Z,21.58
2019-05-11T07:43:12.034Z,21.07
2019-05-11T07:45:42.710Z,20.72
2019-05-11T07:48:14.016Z,20.09
2019-05-11T07:50:45.138Z,20.29
2019-05-11T07:53:18.420Z,20.80
2019-05-11T07:55:48.711Z,21.83
2019-05-11T07:58:20.414Z,22.72
2019-05-11T08:00:51.485Z,23.72
2019-05-11T08:03:22.446Z,24.36
2019-05-11T08:05:54.733Z,23.83
2019-05-11T08:08:28.141Z,23.22
2019-05-11T08:10:58.676Z,21.90
2019-05-11T08:13:29.638Z,20.71
2019-05-11T08:16:03.120Z,20.63
2019-05-11T08:18:33.839Z,21.15
2019-05-11T08:21:04.392Z,21.11
2019-05-11T08:23:37.735Z,21.35
2019-05-11T08:26:08.882Z,21.61
2019-05-11T08:28:39.423Z,21.87
2019-05-11T08:31:09.743Z,22.70
2019-05-11T08:33:40.028Z,22.91
2019-05-11T08:36:10.352Z,22.50
2019-05-11T08:38:40.673Z,22.31
2019-05-11T08:41:11.075Z,22.82
2019-05-11T08:43:41.491Z,22.95
2019-05-11T08:46:11.854Z,22.46
2019-05-11T08:48:42.693Z,21.47
2019-05-11T08:51:12.999Z,20.34
2019-05-11T08:53:43.916Z,19.07
2019-05-11T08:56:14.889Z,17.87
2019-05-11T08:58:45.585Z,17.20
2019-05-11T09:01:18.089Z,16.60
2019-05-11T09:03:48.567Z,16.17
2019-05-11T09:06:20.113Z,15.91
2019-05-11T09:08:50.511Z,15.81
2019-05-11T09:11:20.976Z,15.63
2019-05-11T09:13:51.593Z,15.48
2019-05-11T09:16:22.121Z,15.37
2019-05-11T09:18:52.965Z,15.26
2019-05-11T09:21:23.280Z,15.23
2019-05-11T09:23:53.670Z,15.04
2019-05-11T09:26:25.085Z,14.92
2019-05-11T09:28:58.171Z,14.78
2019-05-11T09:31:28.866Z,14.94
2019-05-11T09:34:00.215Z,15.15
2019-05-11T09:36:30.490Z,15.29
2019-05-11T09:39:00.829Z,15.49
2019-05-11T09:41:34.473Z,15.59
2019-05-11T09:44:08.945Z,15.52
2019-05-11T09:46:39.679Z,15.29
2019-05-11T09:49:10.855Z,15.12
2019-05-11T09:51:41.469Z,15.00
2019-05-11T09:54:12.338Z,14.90
2019-05-11T09:56:44.937Z,14.62
2019-05-11T09:59:17.884Z,14.60
2019-05-11T10:01:48.441Z,14.63
2019-05-11T10:04:20.977Z,14.91
2019-05-11T10:06:51.281Z,15.23
2019-05-11T10:09:21.627Z,15.87
2019-05-11T10:11:52.061Z,16.41
2019-05-11T10:14:22.378Z,16.81
2019-05-11T10:16:52.874Z,17.62
2019-05-11T10:19:23.515Z,18.79
2019-05-11T10:21:54.064Z,19.87
2019-05-11T10:24:24.310Z,20.28
2019-05-11T10:26:54.704Z,20.60
2019-05-11T10:29:28.732Z,20.33
2019-05-11T10:31:58.913Z,19.96
2019-05-11T10:34:33.071Z,19.24
2019-05-11T10:37:03.374Z,18.44
2019-05-11T10:39:34.510Z,17.74
2019-05-11T10:42:05.245Z,17.31
2019-05-11T10:44:38.374Z,16.99
2019-05-11T10:47:08.353Z,16.82
2019-05-11T10:49:40.777Z,16.82
2019-05-11T10:52:11.668Z,16.90
2019-05-11T10:54:42.137Z,17.51
2019-05-11T10:57:14.370Z,18.27
2019-05-11T10:59:44.682Z,19.05
2019-05-11T11:02:15.198Z,19.74
2019-05-11T11:04:48.593Z,19.67
2019-05-11T11:07:20.337Z,19.42
2019-05-11T11:09:51.194Z,19.47
2019-05-11T11:12:21.895Z,19.12
2019-05-11T11:14:52.980Z,18.77
2019-05-11T11:17:23.304Z,18.51
2019-05-11T11:19:54.277Z,18.31
2019-05-11T11:22:37.049Z,18.05
2019-05-11T11:24:59.893Z,17.80
2019-05-11T11:27:32.863Z,17.86
2019-05-11T11:30:05.267Z,18.34
2019-05-11T11:32:38.142Z,18.40
2019-05-11T11:35:10.280Z,18.37
2019-05-11T11:37:41.701Z,18.25
2019-05-11T11:40:17.513Z,18.30
2019-05-11T11:42:47.891Z,18.47
2019-05-11T11:45:19.157Z,18.86
2019-05-11T11:47:50.883Z,18.95
2019-05-11T11:50:22.415Z,18.92
2019-05-11T11:52:52.856Z,18.48
2019-05-11T11:55:23.925Z,18.23
2019-05-11T11:57:55.539Z,18.26
2019-05-11T12:00:28.150Z,18.11
2019-05-11T12:02:58.530Z,17.60
2019-05-11T12:05:28.937Z,17.48
2019-05-11T12:07:59.186Z,17.57
2019-05-11T12:10:31.193Z,18.08
2019-05-11T12:13:02.315Z,18.11
2019-05-11T12:15:33.357Z,17.75
2019-05-11T12:18:04.323Z,17.71
2019-05-11T12:20:34.630Z,18.01
2019-05-11T12:23:05.051Z,18.23
2019-05-11T12:25:38.263Z,18.28
2019-05-11T12:28:08.165Z,18.25
2019-05-11T12:30:38.655Z,18.57
2019-05-11T12:33:12.544Z,18.99
2019-05-11T12:35:42.013Z,19.27
2019-05-11T12:38:12.186Z,19.31
2019-05-11T12:40:43.049Z,19.35
2019-05-11T12:43:13.842Z,19.52
2019-05-11T12:45:44.743Z,19.73
2019-05-11T12:48:15.068Z,19.33
2019-05-11T12:50:48.242Z,18.77
2019-05-11T12:53:19.113Z,18.85
2019-05-11T12:55:49.605Z,19.08
2019-05-11T12:58:20.903Z,18.94
2019-05-11T13:00:51.157Z,18.83
2019-05-11T13:03:21.396Z,18.97
2019-05-11T13:05:52.314Z,18.81
2019-05-11T13:08:22.817Z,17.97
2019-05-11T13:10:53.058Z,17.81
2019-05-11T13:13:23.901Z,17.82
2019-05-11T13:15:54.216Z,18.01
2019-05-11T13:18:29.495Z,18.06
2019-05-11T13:21:00.151Z,18.18
2019-05-11T13:23:31.541Z,18.20
2019-05-11T13:26:01.848Z,18.37
2019-05-11T13:28:33.618Z,18.12
2019-05-11T13:31:05.185Z,17.80
2019-05-11T13:33:35.759Z,17.62
2019-05-11T13:36:06.080Z,17.65
2019-05-11T13:38:38.783Z,17.68
2019-05-11T13:41:09.292Z,17.44
2019-05-11T13:43:39.744Z,17.38
2019-05-11T13:46:10.101Z,17.47
2019-05-11T13:48:41.605Z,17.64
2019-05-11T13:51:11.901Z,17.75
2019-05-11T13:53:42.697Z,17.85
2019-05-11T13:56:12.973Z,17.79
2019-05-11T13:58:45.676Z,17.29
2019-05-11T14:01:18.169Z,17.12
2019-05-11T14:03:49.197Z,16.94
2019-05-11T14:06:20.035Z,16.82
2019-05-11T14:08:51.173Z,16.91
2019-05-11T14:11:21.593Z,16.94
2019-05-11T14:13:52.586Z,16.81
2019-05-11T14:16:23.190Z,16.84
2019-05-11T14:18:55.024Z,16.75
2019-05-11T14:21:27.992Z,16.58
2019-05-11T14:23:59.682Z,16.56
2019-05-11T14:26:30.460Z,16.54
2019-05-11T14:29:02.766Z,16.51
2019-05-11T14:31:33.007Z,16.52
2019-05-11T14:34:04.164Z,16.62
2019-05-11T14:36:34.817Z,16.71
2019-05-11T14:39:08.688Z,16.82
2019-05-11T14:41:38.495Z,16.89
2019-05-11T14:44:09.097Z,16.62
2019-05-11T14:46:39.776Z,16.32
2019-05-11T14:49:10.955Z,16.19
2019-05-11T14:51:42.102Z,16.22
2019-05-11T14:54:12.802Z,16.14
2019-05-11T14:56:44.355Z,16.18
2019-05-11T14:59:14.777Z,16.12
2019-05-11T15:01:48.790Z,15.97
2019-05-11T15:04:18.747Z,15.86
2019-05-11T15:06:49.901Z,15.92
2019-05-11T15:09:20.211Z,15.96
2019-05-11T15:11:52.634Z,15.91
2019-05-11T15:14:28.835Z,15.95
2019-05-11T15:17:00.294Z,15.88
2019-05-11T15:19:30.818Z,15.79
2019-05-11T15:22:01.058Z,15.63
2019-05-11T15:24:32.589Z,15.61
2019-05-11T15:27:02.981Z,15.78
2019-05-11T15:29:34.466Z,15.67
2019-05-11T15:32:04.957Z,15.60
2019-05-11T15:34:37.930Z,15.70
2019-05-11T15:37:08.496Z,15.84
2019-05-11T15:39:39.654Z,15.82
2019-05-11T15:42:16.601Z,15.88
2019-05-11T15:44:43.485Z,15.93
2019-05-11T15:47:14.157Z,15.97
2019-05-11T15:49:48.062Z,15.99
2019-05-11T15:52:18.774Z,15.92
2019-05-11T15:54:49.575Z,15.80
2019-05-11T15:57:19.880Z,15.59
2019-05-11T15:59:50.939Z,15.63
2019-05-11T16:02:21.666Z,15.68
2019-05-11T16:04:52.281Z,15.80
2019-05-11T16:07:22.510Z,15.87
2019-05-11T16:09:52.788Z,15.98
2019-05-11T16:12:24.193Z,15.76
2019-05-11T16:14:54.844Z,15.60
2019-05-11T16:17:25.865Z,15.52
2019-05-11T16:19:58.092Z,15.54
2019-05-11T16:22:30.457Z,15.56
2019-05-11T16:25:01.458Z,15.26
2019-05-11T16:27:32.058Z,15.04
2019-05-11T16:30:03.946Z,15.11
2019-05-11T16:32:34.360Z,15.17
2019-05-11T16:35:09.065Z,15.12
2019-05-11T16:37:39.601Z,15.16
2019-05-11T16:40:12.585Z,15.19
2019-05-11T16:42:43.076Z,15.28
2019-05-11T16:45:18.951Z,15.30
2019-05-11T16:47:49.960Z,15.36
2019-05-11T16:50:21.456Z,15.24
2019-05-11T16:52:52.177Z,15.27
2019-05-11T16:55:23.124Z,15.31
2019-05-11T16:57:55.285Z,15.33
2019-05-11T17:00:26.385Z,15.13
2019-05-11T17:02:57.750Z,15.06
2019-05-11T17:05:33.248Z,15.03
2019-05-11T17:08:00.950Z,15.12
2019-05-11T17:10:31.820Z,15.18
2019-05-11T17:13:03.426Z,15.13
2019-05-11T17:15:34.724Z,15.10
2019-05-11T17:18:05.035Z,15.16
2019-05-11T17:20:35.389Z,15.06
2019-05-11T17:23:05.729Z,15.08
2019-05-11T17:25:37.969Z,15.01
2019-05-11T17:28:09.994Z,14.99
2019-05-11T17:30:40.397Z,15.02
2019-05-11T17:33:10.757Z,14.99
2019-05-11T17:35:41.912Z,14.89
2019-05-11T17:38:12.220Z,14.85
2019-05-11T17:40:42.494Z,14.87
2019-05-11T17:43:13.643Z,14.79
2019-05-11T17:45:44.394Z,14.79
2019-05-11T17:48:14.951Z,14.67
2019-05-11T17:50:45.190Z,14.46
2019-05-11T17:53:18.292Z,14.54
2019-05-11T17:55:48.917Z,14.57
2019-05-11T17:58:19.514Z,14.69
2019-05-11T18:00:51.086Z,14.52
2019-05-11T18:03:21.432Z,14.43
2019-05-11T18:05:52.120Z,14.41
2019-05-11T18:08:22.818Z,14.37
2019-05-11T18:10:53.665Z,14.31
2019-05-11T18:13:24.200Z,14.21
2019-05-11T18:15:55.108Z,14.26
2019-05-11T18:18:29.082Z,14.20
2019-05-11T18:21:00.508Z,14.13
2019-05-11T18:23:30.836Z,14.15
2019-05-11T18:26:01.118Z,14.08
2019-05-11T18:28:31.462Z,14.02
2019-05-11T18:31:02.858Z,13.92
2019-05-11T18:33:33.512Z,13.88
2019-05-11T18:36:04.534Z,13.85
2019-05-11T18:38:34.884Z,13.86
2019-05-11T18:41:05.264Z,13.86
2019-05-11T18:43:37.759Z,13.73
2019-05-11T18:46:08.892Z,13.69
2019-05-11T18:48:39.228Z,13.64
2019-05-11T18:51:09.811Z,13.68
2019-05-11T18:53:40.334Z,13.51
2019-05-11T18:56:11.188Z,13.44
2019-05-11T18:58:43.158Z,13.20
2019-05-11T19:01:17.548Z,13.13
2019-05-11T19:03:47.990Z,13.05
2019-05-11T19:06:21.061Z,12.89
2019-05-11T19:08:51.296Z,12.82
2019-05-11T19:11:21.608Z,12.80
2019-05-11T19:13:52.857Z,12.69
2019-05-11T19:16:23.180Z,12.63
2019-05-11T19:18:54.314Z,12.55
2019-05-11T19:21:24.740Z,12.56
2019-05-11T19:23:55.290Z,12.60
2019-05-11T19:26:25.927Z,12.74
2019-05-11T19:28:57.838Z,12.76
2019-05-11T19:31:31.074Z,12.44
2019-05-11T19:34:02.013Z,12.19
2019-05-11T19:36:32.315Z,12.13
2019-05-11T19:39:03.042Z,11.96
2019-05-11T19:41:34.244Z,11.92
2019-05-11T19:44:05.331Z,11.90
2019-05-11T19:46:38.357Z,11.94
2019-05-11T19:49:09.095Z,12.00
2019-05-11T19:51:42.512Z,12.12
2019-05-11T19:54:12.765Z,11.96
2019-05-11T19:56:45.840Z,11.75
2019-05-11T19:59:16.465Z,11.60
2019-05-11T20:01:48.115Z,11.55
2019-05-11T20:04:18.890Z,11.42
2019-05-11T20:06:49.749Z,11.60
2019-05-11T20:09:20.752Z,11.42
2019-05-11T20:11:51.669Z,11.29
2019-05-11T20:14:22.057Z,11.28
2019-05-11T20:16:53.031Z,11.18
2019-05-11T20:19:23.729Z,11.21
2019-05-11T20:21:54.657Z,11.12
2019-05-11T20:24:25.293Z,11.01
2019-05-11T20:26:56.891Z,10.95
2019-05-11T20:29:27.743Z,10.97
2019-05-11T20:31:59.202Z,10.96
2019-05-11T20:34:29.885Z,10.83
2019-05-11T20:37:01.463Z,10.77
2019-05-11T20:39:32.255Z,10.70
2019-05-11T20:42:02.625Z,10.69
2019-05-11T20:44:33.265Z,10.60
2019-05-11T20:47:04.137Z,10.57
2019-05-11T20:49:35.426Z,10.52
2019-05-11T20:52:08.534Z,10.48
2019-05-11T20:54:38.759Z,10.49
2019-05-11T20:57:11.601Z,10.42
2019-05-11T20:59:42.869Z,10.38
2019-05-11T21:02:14.839Z,10.33
2019-05-11T21:04:45.069Z,10.28
2019-05-11T21:07:19.961Z,10.26
2019-05-11T21:09:50.598Z,10.27
2019-05-11T21:12:22.490Z,10.34
2019-05-11T21:14:52.848Z,10.36
2019-05-11T21:17:23.783Z,10.56
2019-05-11T21:19:54.137Z,10.38
2019-05-11T21:22:25.492Z,10.58
2019-05-11T21:24:58.198Z,10.35
2019-05-11T21:27:28.756Z,10.26
2019-05-11T21:29:59.424Z,10.18
2019-05-11T21:32:31.350Z,10.08
2019-05-11T21:35:02.150Z,10.09
2019-05-11T21:37:32.525Z,10.02
2019-05-11T21:40:02.873Z,10.00
2019-05-11T21:42:34.936Z,10.00
2019-05-11T21:45:09.087Z,10.00
2019-05-11T21:47:40.420Z,9.95
2019-05-11T21:50:11.117Z,9.92
2019-05-11T21:52:42.164Z,9.93
2019-05-11T21:55:12.861Z,9.80
2019-05-11T21:57:44.075Z,9.77
2019-05-11T22:00:14.882Z,9.69
2019-05-11T22:02:48.623Z,9.64
2019-05-11T22:05:20.884Z,9.58
2019-05-11T22:07:51.349Z,9.53
2019-05-11T22:10:21.672Z,9.48
2019-05-11T22:12:53.250Z,9.42
2019-05-11T22:15:24.342Z,9.40
2019-05-11T22:17:54.795Z,9.35
2019-05-11T22:20:25.323Z,9.30
2019-05-11T22:22:58.186Z,9.29
2019-05-11T22:25:28.872Z,9.21
2019-05-11T22:27:59.614Z,9.15
2019-05-11T22:30:30.051Z,9.12
2019-05-11T22:33:01.747Z,9.13
2019-05-11T22:35:32.461Z,9.10
2019-05-11T22:38:03.130Z,9.06
2019-05-11T22:40:33.448Z,9.05
2019-05-11T22:43:05.000Z,9.04
2019-05-11T22:45:35.315Z,9.04
2019-05-11T22:48:07.927Z,9.04
2019-05-11T22:50:38.796Z,9.02
2019-05-11T22:53:11.812Z,9.01
2019-05-11T22:55:42.098Z,9.00
2019-05-11T22:58:13.513Z,8.97
2019-05-11T23:00:45.779Z,8.96
2019-05-11T23:03:19.873Z,8.94
2019-05-11T23:05:50.455Z,8.92
2019-05-11T23:08:21.123Z,8.89
2019-05-11T23:10:51.444Z,8.86
2019-05-11T23:13:23.305Z,8.85
2019-05-11T23:15:53.629Z,8.83
2019-05-11T23:18:24.071Z,8.80
2019-05-11T23:20:54.377Z,8.80
2019-05-11T23:23:25.425Z,8.75
2019-05-11T23:25:57.541Z,8.73
2019-05-11T23:28:28.939Z,8.69
2019-05-11T23:30:59.922Z,8.67
2019-05-11T23:33:32.137Z,8.66
2019-05-11T23:36:02.441Z,8.63
2019-05-11T23:38:32.885Z,8.63
2019-05-11T23:41:03.526Z,8.62
2019-05-11T23:43:35.435Z,8.61
2019-05-11T23:46:05.706Z,8.59
2019-05-11T23:48:38.414Z,8.57
2019-05-11T23:51:08.808Z,8.59
2019-05-11T23:53:40.534Z,8.61
2019-05-11T23:56:10.873Z,8.82
2019-05-11T23:58:41.188Z,8.72
